createdAt,value
2023-02-18T00:01:55.268Z,7.74
2023-02-18T00:06:48.018Z,7.75
2023-02-18T00:11:41.354Z,7.66
2023-02-18T00:16:36.695Z,7.56
2023-02-18T00:21:30.264Z,7.48
2023-02-18T00:26:23.620Z,7.38
2023-02-18T00:31:22.586Z,7.26
2023-02-18T00:36:18.505Z,7.18
2023-02-18T00:41:11.341Z,7.17
2023-02-18T00:46:04.285Z,7.15
2023-02-18T00:50:57.955Z,7.11
2023-02-18T00:55:50.747Z,7.09
2023-02-18T01:00:43.936Z,7.11
2023-02-18T01:05:39.914Z,7.12
2023-02-18T01:10:33.876Z,7.13
2023-02-18T01:15:26.966Z,7.12
2023-02-18T01:20:21.376Z,7.11
2023-02-18T01:25:15.371Z,7.11
2023-02-18T01:30:12.185Z,7.12
2023-02-18T01:35:07.835Z,7.11
2023-02-18T01:40:01.121Z,7.03
2023-02-18T01:44:54.791Z,6.96
2023-02-18T01:49:52.293Z,6.94
2023-02-18T01:54:51.671Z,6.97
2023-02-18T01:59:49.277Z,6.99
2023-02-18T02:04:42.747Z,7.00
2023-02-18T02:09:36.546Z,7.02
2023-02-18T02:14:40.861Z,7.04
2023-02-18T02:19:52.029Z,7.04
2023-02-18T02:25:29.756Z,7.01
2023-02-18T02:30:22.985Z,6.98
2023-02-18T02:35:28.369Z,6.94
2023-02-18T02:40:36.904Z,6.87
2023-02-18T02:46:11.336Z,6.84
2023-02-18T02:51:11.580Z,6.82
2023-02-18T02:56:05.158Z,6.80
2023-02-18T03:01:30.142Z,6.77
2023-02-18T03:06:45.239Z,6.74
2023-02-18T03:12:02.940Z,6.72
2023-02-18T03:17:03.643Z,6.69
2023-02-18T03:22:19.697Z,6.68
2023-02-18T03:27:22.167Z,6.64
2023-02-18T03:32:19.439Z,6.61
2023-02-18T03:37:13.954Z,6.55
2023-02-18T03:42:07.571Z,6.50
2023-02-18T03:47:00.916Z,6.46
2023-02-18T03:51:53.912Z,6.43
2023-02-18T03:56:47.259Z,6.41
2023-02-18T04:01:40.255Z,6.41
2023-02-18T04:06:33.316Z,6.40
2023-02-18T04:11:26.139Z,6.39
2023-02-18T04:16:18.986Z,6.37
2023-02-18T04:21:11.827Z,6.34
2023-02-18T04:26:05.076Z,6.32
2023-02-18T04:30:59.119Z,6.30
2023-02-18T04:35:51.917Z,6.31
2023-02-18T04:40:44.706Z,6.29
2023-02-18T04:45:39.655Z,6.24
2023-02-18T04:50:32.478Z,6.18
2023-02-18T04:55:25.299Z,6.09
2023-02-18T05:00:20.782Z,6.07
2023-02-18T05:05:14.988Z,6.07
2023-02-18T05:10:08.880Z,6.07
2023-02-18T05:15:01.721Z,6.07
2023-02-18T05:19:55.331Z,6.07
2023-02-18T05:24:48.340Z,6.04
2023-02-18T05:29:41.111Z,6.02
2023-02-18T05:34:33.950Z,6.02
2023-02-18T05:39:26.763Z,6.00
2023-02-18T05:44:31.924Z,6.00
2023-02-18T05:49:26.808Z,6.00
2023-02-18T05:54:19.580Z,6.00
2023-02-18T05:59:12.414Z,6.01
2023-02-18T06:04:05.252Z,6.03
2023-02-18T06:08:58.009Z,6.03
2023-02-18T06:13:50.789Z,6.04
2023-02-18T06:18:43.612Z,6.06
2023-02-18T06:23:36.501Z,6.07
2023-02-18T06:28:29.448Z,6.10
2023-02-18T06:33:22.734Z,6.10
2023-02-18T06:38:15.530Z,6.14
2023-02-18T06:43:08.283Z,6.14
2023-02-18T06:48:03.951Z,6.12
2023-02-18T06:52:56.742Z,6.15
2023-02-18T06:57:49.553Z,6.21
2023-02-18T07:02:42.381Z,6.23
2023-02-18T07:07:37.548Z,6.24
2023-02-18T07:12:30.318Z,6.27
2023-02-18T07:17:23.103Z,6.35
2023-02-18T07:22:15.901Z,6.46
2023-02-18T07:27:09.094Z,6.56
2023-02-18T07:32:01.919Z,6.58
2023-02-18T07:36:54.752Z,6.61
2023-02-18T07:41:49.535Z,6.74
2023-02-18T07:46:43.390Z,6.75
2023-02-18T07:51:37.854Z,6.82
2023-02-18T07:56:30.713Z,6.90
2023-02-18T08:01:23.493Z,7.01
2023-02-18T08:06:23.464Z,7.08
2023-02-18T08:11:19.394Z,7.22
2023-02-18T08:16:12.681Z,7.13
2023-02-18T08:21:05.814Z,7.07
2023-02-18T08:25:58.636Z,7.07
2023-02-18T08:30:54.810Z,7.18
2023-02-18T08:35:50.004Z,7.24
2023-02-18T08:40:43.117Z,7.28
2023-02-18T08:45:38.151Z,7.41
2023-02-18T08:50:31.629Z,7.55
2023-02-18T08:55:25.212Z,7.49
2023-02-18T09:00:19.030Z,7.54
2023-02-18T09:05:12.431Z,7.66
2023-02-18T09:10:06.294Z,7.92
2023-02-18T09:14:59.191Z,7.94
2023-02-18T09:19:51.967Z,8.09
2023-02-18T09:24:44.807Z,8.15
2023-02-18T09:29:40.873Z,8.15
2023-02-18T09:34:34.251Z,8.13
2023-02-18T09:39:27.322Z,8.03
2023-02-18T09:44:27.505Z,8.06
2023-02-18T09:49:24.883Z,8.39
2023-02-18T09:54:21.082Z,8.60
2023-02-18T09:59:23.937Z,8.43
2023-02-18T10:04:30.474Z,8.32
2023-02-18T10:09:40.335Z,8.45
2023-02-18T10:14:36.120Z,8.44
2023-02-18T10:19:41.040Z,8.45
2023-02-18T10:24:43.956Z,8.23
2023-02-18T10:29:37.642Z,8.14
2023-02-18T10:34:39.507Z,8.51
2023-02-18T10:39:53.285Z,8.69
2023-02-18T10:44:58.045Z,8.73
2023-02-18T10:50:01.461Z,8.88
2023-02-18T10:55:00.973Z,8.80
2023-02-18T11:00:16.254Z,8.78
2023-02-18T11:05:24.877Z,8.58
2023-02-18T11:10:23.398Z,8.40
2023-02-18T11:15:16.404Z,8.35
2023-02-18T11:20:26.470Z,8.24
2023-02-18T11:25:22.432Z,8.27
2023-02-18T11:30:27.996Z,8.30
2023-02-18T11:35:23.937Z,8.24
2023-02-18T11:40:42.594Z,8.19
2023-02-18T11:45:36.898Z,8.25
2023-02-18T11:50:35.359Z,8.28
2023-02-18T11:55:31.215Z,8.33
2023-02-18T12:00:43.100Z,8.58
2023-02-18T12:05:39.008Z,8.68
2023-02-18T12:10:47.776Z,8.46
2023-02-18T12:15:49.574Z,8.35
2023-02-18T12:20:59.841Z,8.32
2023-02-18T12:25:52.564Z,8.39
2023-02-18T12:31:09.524Z,8.48
2023-02-18T12:36:11.840Z,8.51
2023-02-18T12:41:11.201Z,8.47
2023-02-18T12:46:19.447Z,8.52
2023-02-18T12:51:18.428Z,8.50
2023-02-18T12:56:36.577Z,8.48
2023-02-18T13:01:32.023Z,8.64
2023-02-18T13:06:43.227Z,8.68
2023-02-18T13:11:57.853Z,8.54
2023-02-18T13:16:56.271Z,8.52
2023-02-18T13:21:56.605Z,8.60
2023-02-18T13:26:52.843Z,8.53
2023-02-18T13:31:56.003Z,8.33
2023-02-18T13:37:13.728Z,8.22
2023-02-18T13:42:18.904Z,8.11
2023-02-18T13:47:11.980Z,7.93
2023-02-18T13:52:06.042Z,7.81
2023-02-18T13:57:06.067Z,7.73
2023-02-18T14:02:28.964Z,7.67
2023-02-18T14:07:39.215Z,7.72
2023-02-18T14:12:31.962Z,7.70
2023-02-18T14:17:25.901Z,7.66
2023-02-18T14:22:34.194Z,7.56
2023-02-18T14:27:27.709Z,7.44
2023-02-18T14:32:22.517Z,7.35
2023-02-18T14:37:21.198Z,7.28
2023-02-18T14:42:19.961Z,7.24
2023-02-18T14:47:28.993Z,7.22
2023-02-18T14:52:34.104Z,7.19
2023-02-18T14:57:37.867Z,7.17
2023-02-18T15:02:32.040Z,7.14
2023-02-18T15:07:24.838Z,7.13
2023-02-18T15:12:25.637Z,7.12
2023-02-18T15:17:23.097Z,6.96
2023-02-18T15:22:22.236Z,6.82
2023-02-18T15:27:30.274Z,6.65
2023-02-18T15:32:29.578Z,6.36
2023-02-18T15:37:22.432Z,6.12
2023-02-18T15:42:27.581Z,5.94
2023-02-18T15:47:21.816Z,5.77
2023-02-18T15:52:15.182Z,5.61
2023-02-18T15:57:10.920Z,5.43
2023-02-18T16:02:10.085Z,5.30
2023-02-18T16:07:19.884Z,5.22
2023-02-18T16:12:33.639Z,5.14
2023-02-18T16:17:29.239Z,5.11
2023-02-18T16:22:36.452Z,5.13
2023-02-18T16:27:35.949Z,5.16
2023-02-18T16:32:28.699Z,5.17
2023-02-18T16:37:39.974Z,5.17
2023-02-18T16:42:32.783Z,5.18
2023-02-18T16:47:25.561Z,5.20
2023-02-18T16:52:19.673Z,5.19
2023-02-18T16:57:12.546Z,5.14
2023-02-18T17:02:05.561Z,5.13
2023-02-18T17:06:58.333Z,5.13
2023-02-18T17:11:53.265Z,5.16
2023-02-18T17:16:51.568Z,5.16
2023-02-18T17:21:46.977Z,5.15
2023-02-18T17:26:41.430Z,5.12
2023-02-18T17:31:44.661Z,5.15
2023-02-18T17:36:38.768Z,5.21
2023-02-18T17:41:31.539Z,5.24
2023-02-18T17:46:24.408Z,5.25
2023-02-18T17:51:29.734Z,5.28
2023-02-18T17:56:23.675Z,5.29
2023-02-18T18:01:17.325Z,5.26
2023-02-18T18:06:18.848Z,5.23
2023-02-18T18:11:17.525Z,5.26
2023-02-18T18:16:16.150Z,5.30
2023-02-18T18:21:20.152Z,5.30
2023-02-18T18:26:12.916Z,5.27
2023-02-18T18:31:06.599Z,5.28
2023-02-18T18:36:01.345Z,5.24
2023-02-18T18:40:55.518Z,5.12
2023-02-18T18:45:49.567Z,5.06
2023-02-18T18:50:44.067Z,5.03
2023-02-18T18:55:40.857Z,5.03
2023-02-18T19:00:44.760Z,5.00
2023-02-18T19:05:40.566Z,4.90
2023-02-18T19:10:36.578Z,4.88
2023-02-18T19:15:29.881Z,4.85
2023-02-18T19:20:27.172Z,4.79
2023-02-18T19:25:21.470Z,4.76
2023-02-18T19:30:34.850Z,4.72
2023-02-18T19:35:29.221Z,4.66
2023-02-18T19:40:25.353Z,4.67
2023-02-18T19:45:22.737Z,4.66
2023-02-18T19:50:20.338Z,4.61
2023-02-18T19:55:13.019Z,4.54
2023-02-18T20:00:09.781Z,4.52
2023-02-18T20:05:10.014Z,4.51
2023-02-18T20:10:03.621Z,4.52
2023-02-18T20:14:56.420Z,4.55
2023-02-18T20:19:49.223Z,4.57
2023-02-18T20:24:42.593Z,4.53
2023-02-18T20:29:36.423Z,4.52
2023-02-18T20:34:29.569Z,4.53
2023-02-18T20:39:22.768Z,4.58
2023-02-18T20:44:17.289Z,4.65
2023-02-18T20:49:14.482Z,4.64
2023-02-18T20:54:10.170Z,4.63
2023-02-18T20:59:06.125Z,4.61
2023-02-18T21:03:59.562Z,4.59
2023-02-18T21:08:54.374Z,4.59
2023-02-18T21:13:49.065Z,4.53
2023-02-18T21:18:42.677Z,4.55
2023-02-18T21:23:36.535Z,4.63
2023-02-18T21:28:29.283Z,4.65
2023-02-18T21:33:22.074Z,4.63
2023-02-18T21:38:14.856Z,4.64
2023-02-18T21:43:07.712Z,4.60
2023-02-18T21:48:20.483Z,4.59
2023-02-18T21:53:13.598Z,4.63
2023-02-18T21:58:06.438Z,4.56
2023-02-18T22:02:59.705Z,4.39
2023-02-18T22:07:55.549Z,4.24
2023-02-18T22:12:48.322Z,4.10
2023-02-18T22:17:41.126Z,3.99
2023-02-18T22:22:33.994Z,3.92
2023-02-18T22:27:27.834Z,3.87
2023-02-18T22:32:21.219Z,3.87
2023-02-18T22:37:14.130Z,3.93
2023-02-18T22:42:06.956Z,3.98
2023-02-18T22:46:59.769Z,4.03
2023-02-18T22:51:55.030Z,4.08
2023-02-18T22:56:49.029Z,4.12
2023-02-18T23:01:44.471Z,4.14
2023-02-18T23:06:38.790Z,4.15
2023-02-18T23:11:31.696Z,4.16
2023-02-18T23:16:24.497Z,4.13
2023-02-18T23:21:21.362Z,4.08
2023-02-18T23:26:17.730Z,4.04
2023-02-18T23:31:10.901Z,4.02
2023-02-18T23:36:16.920Z,4.04
2023-02-18T23:41:12.428Z,4.00
2023-02-18T23:46:05.357Z,3.95
2023-02-18T23:51:02.500Z,3.93
2023-02-18T23:56:27.923Z,3.91
